sensor_id;sensor_type;location;lat;lon;timestamp;P1;durP1;ratioP1;P2;durP2;ratioP2
46407;SDS011;32110;45.724;21.276;2023-07-13T00:02:06;23.70;;;6.20;;
46407;SDS011;32110;45.724;21.276;2023-07-13T00:04:32;18.88;;;7.28;;
46407;SDS011;32110;45.724;21.276;2023-07-13T00:06:58;18.77;;;6.32;;
46407;SDS011;32110;45.724;21.276;2023-07-13T00:09:23;17.45;;;5.72;;
46407;SDS011;32110;45.724;21.276;2023-07-13T00:11:53;20.35;;;6.30;;
46407;SDS011;32110;45.724;21.276;2023-07-13T00:14:20;16.05;;;6.40;;
46407;SDS011;32110;45.724;21.276;2023-07-13T00:16:46;16.75;;;6.20;;
46407;SDS011;32110;45.724;21.276;2023-07-13T00:19:11;17.98;;;6.38;;
46407;SDS011;32110;45.724;21.276;2023-07-13T00:21:40;15.13;;;6.43;;
46407;SDS011;32110;45.724;21.276;2023-07-13T00:24:07;19.85;;;6.18;;
46407;SDS011;32110;45.724;21.276;2023-07-13T00:26:37;17.23;;;6.50;;
46407;SDS011;32110;45.724;21.276;2023-07-13T00:29:03;17.55;;;6.78;;
46407;SDS011;32110;45.724;21.276;2023-07-13T00:31:29;14.95;;;5.88;;
46407;SDS011;32110;45.724;21.276;2023-07-13T00:33:55;16.80;;;6.60;;
46407;SDS011;32110;45.724;21.276;2023-07-13T00:36:21;16.83;;;6.55;;
46407;SDS011;32110;45.724;21.276;2023-07-13T00:38:46;16.95;;;6.80;;
46407;SDS011;32110;45.724;21.276;2023-07-13T00:41:12;20.70;;;7.03;;
46407;SDS011;32110;45.724;21.276;2023-07-13T00:43:38;17.42;;;6.80;;
46407;SDS011;32110;45.724;21.276;2023-07-13T00:46:12;21.05;;;6.82;;
46407;SDS011;32110;45.724;21.276;2023-07-13T00:48:37;17.98;;;6.78;;
46407;SDS011;32110;45.724;21.276;2023-07-13T00:51:03;14.65;;;6.45;;
46407;SDS011;32110;45.724;21.276;2023-07-13T00:53:29;16.85;;;6.63;;
46407;SDS011;32110;45.724;21.276;2023-07-13T00:55:57;13.63;;;7.35;;
46407;SDS011;32110;45.724;21.276;2023-07-13T00:58:24;16.60;;;7.13;;
46407;SDS011;32110;45.724;21.276;2023-07-13T01:00:50;14.77;;;6.43;;
46407;SDS011;32110;45.724;21.276;2023-07-13T01:03:16;13.40;;;6.18;;
46407;SDS011;32110;45.724;21.276;2023-07-13T01:05:42;21.13;;;7.00;;
46407;SDS011;32110;45.724;21.276;2023-07-13T01:08:07;12.77;;;6.38;;
46407;SDS011;32110;45.724;21.276;2023-07-13T01:10:33;17.45;;;7.47;;
46407;SDS011;32110;45.724;21.276;2023-07-13T01:13:04;13.88;;;6.22;;
46407;SDS011;32110;45.724;21.276;2023-07-13T01:15:44;19.90;;;7.10;;
46407;SDS011;32110;45.724;21.276;2023-07-13T01:18:13;18.35;;;6.97;;
46407;SDS011;32110;45.724;21.276;2023-07-13T01:20:46;15.73;;;6.50;;
46407;SDS011;32110;45.724;21.276;2023-07-13T01:23:15;16.42;;;7.03;;
46407;SDS011;32110;45.724;21.276;2023-07-13T01:25:41;14.32;;;7.28;;
46407;SDS011;32110;45.724;21.276;2023-07-13T01:28:06;15.25;;;6.30;;
46407;SDS011;32110;45.724;21.276;2023-07-13T01:30:36;17.55;;;6.75;;
46407;SDS011;32110;45.724;21.276;2023-07-13T01:33:04;19.15;;;6.82;;
46407;SDS011;32110;45.724;21.276;2023-07-13T01:35:32;16.70;;;7.43;;
46407;SDS011;32110;45.724;21.276;2023-07-13T01:37:57;14.05;;;7.40;;
46407;SDS011;32110;45.724;21.276;2023-07-13T01:40:25;20.50;;;6.82;;
46407;SDS011;32110;45.724;21.276;2023-07-13T01:42:51;15.75;;;7.55;;
46407;SDS011;32110;45.724;21.276;2023-07-13T01:45:16;16.70;;;7.82;;
46407;SDS011;32110;45.724;21.276;2023-07-13T01:47:41;14.13;;;6.82;;
46407;SDS011;32110;45.724;21.276;2023-07-13T01:50:07;16.10;;;7.82;;
46407;SDS011;32110;45.724;21.276;2023-07-13T01:52:33;12.43;;;6.78;;
46407;SDS011;32110;45.724;21.276;2023-07-13T01:54:58;19.13;;;6.88;;
46407;SDS011;32110;45.724;21.276;2023-07-13T01:57:23;18.05;;;7.18;;
46407;SDS011;32110;45.724;21.276;2023-07-13T01:59:49;16.50;;;7.10;;
46407;SDS011;32110;45.724;21.276;2023-07-13T02:02:14;12.02;;;6.90;;
46407;SDS011;32110;45.724;21.276;2023-07-13T02:04:39;12.23;;;6.80;;
46407;SDS011;32110;45.724;21.276;2023-07-13T02:07:05;16.10;;;7.50;;
46407;SDS011;32110;45.724;21.276;2023-07-13T02:09:30;11.02;;;6.80;;
46407;SDS011;32110;45.724;21.276;2023-07-13T02:11:56;16.88;;;7.38;;
46407;SDS011;32110;45.724;21.276;2023-07-13T02:14:22;12.77;;;7.15;;
46407;SDS011;32110;45.724;21.276;2023-07-13T02:16:47;17.20;;;7.30;;
46407;SDS011;32110;45.724;21.276;2023-07-13T02:19:13;15.23;;;8.50;;
46407;SDS011;32110;45.724;21.276;2023-07-13T02:21:39;16.77;;;8.00;;
46407;SDS011;32110;45.724;21.276;2023-07-13T02:24:04;15.05;;;7.32;;
46407;SDS011;32110;45.724;21.276;2023-07-13T02:26:29;14.85;;;7.40;;
46407;SDS011;32110;45.724;21.276;2023-07-13T02:28:55;19.48;;;6.88;;
46407;SDS011;32110;45.724;21.276;2023-07-13T02:31:20;23.02;;;7.88;;
46407;SDS011;32110;45.724;21.276;2023-07-13T02:33:46;14.98;;;6.43;;
46407;SDS011;32110;45.724;21.276;2023-07-13T02:36:11;15.27;;;7.35;;
46407;SDS011;32110;45.724;21.276;2023-07-13T02:38:39;17.17;;;7.18;;
46407;SDS011;32110;45.724;21.276;2023-07-13T02:41:05;21.70;;;7.60;;
46407;SDS011;32110;45.724;21.276;2023-07-13T02:43:33;16.05;;;7.20;;
46407;SDS011;32110;45.724;21.276;2023-07-13T02:45:59;14.43;;;7.15;;
46407;SDS011;32110;45.724;21.276;2023-07-13T02:48:29;19.50;;;6.80;;
46407;SDS011;32110;45.724;21.276;2023-07-13T02:50:55;19.60;;;7.45;;
46407;SDS011;32110;45.724;21.276;2023-07-13T02:53:20;16.35;;;7.35;;
46407;SDS011;32110;45.724;21.276;2023-07-13T02:55:46;19.55;;;7.43;;
46407;SDS011;32110;45.724;21.276;2023-07-13T02:58:12;12.70;;;7.13;;
46407;SDS011;32110;45.724;21.276;2023-07-13T03:00:41;15.13;;;7.30;;
46407;SDS011;32110;45.724;21.276;2023-07-13T03:03:07;15.90;;;7.07;;
46407;SDS011;32110;45.724;21.276;2023-07-13T03:05:33;20.80;;;7.30;;
46407;SDS011;32110;45.724;21.276;2023-07-13T03:07:58;15.88;;;7.32;;
46407;SDS011;32110;45.724;21.276;2023-07-13T03:10:23;13.88;;;7.18;;
46407;SDS011;32110;45.724;21.276;2023-07-13T03:12:49;12.35;;;7.05;;
46407;SDS011;32110;45.724;21.276;2023-07-13T03:15:14;19.23;;;7.10;;
46407;SDS011;32110;45.724;21.276;2023-07-13T03:17:40;14.20;;;7.35;;
46407;SDS011;32110;45.724;21.276;2023-07-13T03:20:05;15.88;;;7.50;;
46407;SDS011;32110;45.724;21.276;2023-07-13T03:22:32;14.85;;;7.07;;
46407;SDS011;32110;45.724;21.276;2023-07-13T03:24:57;16.52;;;7.57;;
46407;SDS011;32110;45.724;21.276;2023-07-13T03:27:22;13.70;;;6.85;;
46407;SDS011;32110;45.724;21.276;2023-07-13T03:29:48;14.82;;;7.18;;
46407;SDS011;32110;45.724;21.276;2023-07-13T03:32:13;15.77;;;7.32;;
46407;SDS011;32110;45.724;21.276;2023-07-13T03:34:39;20.73;;;7.28;;
46407;SDS011;32110;45.724;21.276;2023-07-13T03:37:04;15.93;;;7.50;;
46407;SDS011;32110;45.724;21.276;2023-07-13T03:39:30;15.02;;;7.47;;
46407;SDS011;32110;45.724;21.276;2023-07-13T03:41:55;23.75;;;8.10;;
46407;SDS011;32110;45.724;21.276;2023-07-13T03:44:21;16.20;;;7.10;;
46407;SDS011;32110;45.724;21.276;2023-07-13T03:46:46;14.68;;;7.70;;
46407;SDS011;32110;45.724;21.276;2023-07-13T03:49:11;16.85;;;7.65;;
46407;SDS011;32110;45.724;21.276;2023-07-13T03:51:37;18.33;;;7.30;;
46407;SDS011;32110;45.724;21.276;2023-07-13T03:54:03;15.00;;;7.07;;
46407;SDS011;32110;45.724;21.276;2023-07-13T03:56:28;16.90;;;7.75;;
46407;SDS011;32110;45.724;21.276;2023-07-13T03:58:55;13.93;;;7.55;;
46407;SDS011;32110;45.724;21.276;2023-07-13T04:01:21;14.25;;;7.68;;
46407;SDS011;32110;45.724;21.276;2023-07-13T04:03:47;12.45;;;7.20;;
46407;SDS011;32110;45.724;21.276;2023-07-13T04:06:23;17.90;;;7.40;;
46407;SDS011;32110;45.724;21.276;2023-07-13T04:08:53;17.88;;;7.70;;
46407;SDS011;32110;45.724;21.276;2023-07-13T04:11:20;19.70;;;7.90;;
46407;SDS011;32110;45.724;21.276;2023-07-13T04:13:47;18.42;;;8.60;;
46407;SDS011;32110;45.724;21.276;2023-07-13T04:16:13;15.63;;;7.95;;
46407;SDS011;32110;45.724;21.276;2023-07-13T04:18:39;21.90;;;8.18;;
46407;SDS011;32110;45.724;21.276;2023-07-13T04:21:06;17.08;;;8.60;;
46407;SDS011;32110;45.724;21.276;2023-07-13T04:23:32;26.60;;;9.18;;
46407;SDS011;32110;45.724;21.276;2023-07-13T04:25:57;21.30;;;8.70;;
46407;SDS011;32110;45.724;21.276;2023-07-13T04:28:23;16.83;;;8.80;;
46407;SDS011;32110;45.724;21.276;2023-07-13T04:30:50;22.17;;;8.70;;
46407;SDS011;32110;45.724;21.276;2023-07-13T04:33:16;19.50;;;9.18;;
46407;SDS011;32110;45.724;21.276;2023-07-13T04:35:48;16.95;;;8.45;;
46407;SDS011;32110;45.724;21.276;2023-07-13T04:38:19;15.77;;;9.35;;
46407;SDS011;32110;45.724;21.276;2023-07-13T04:40:45;22.15;;;9.65;;
46407;SDS011;32110;45.724;21.276;2023-07-13T04:43:10;22.83;;;9.15;;
46407;SDS011;32110;45.724;21.276;2023-07-13T04:45:36;16.45;;;8.88;;
46407;SDS011;32110;45.724;21.276;2023-07-13T04:48:01;25.00;;;8.93;;
46407;SDS011;32110;45.724;21.276;2023-07-13T04:50:27;22.70;;;9.18;;
46407;SDS011;32110;45.724;21.276;2023-07-13T04:52:52;20.00;;;8.80;;
46407;SDS011;32110;45.724;21.276;2023-07-13T04:55:19;18.33;;;9.10;;
46407;SDS011;32110;45.724;21.276;2023-07-13T04:57:45;25.90;;;9.77;;
46407;SDS011;32110;45.724;21.276;2023-07-13T05:00:11;27.23;;;10.45;;
46407;SDS011;32110;45.724;21.276;2023-07-13T05:02:38;20.45;;;9.55;;
46407;SDS011;32110;45.724;21.276;2023-07-13T05:05:04;25.40;;;9.68;;
46407;SDS011;32110;45.724;21.276;2023-07-13T05:07:31;24.88;;;9.48;;
46407;SDS011;32110;45.724;21.276;2023-07-13T05:09:58;21.20;;;9.05;;
46407;SDS011;32110;45.724;21.276;2023-07-13T05:12:24;20.83;;;9.32;;
46407;SDS011;32110;45.724;21.276;2023-07-13T05:14:50;20.02;;;8.55;;
46407;SDS011;32110;45.724;21.276;2023-07-13T05:17:15;19.95;;;9.30;;
46407;SDS011;32110;45.724;21.276;2023-07-13T05:19:41;17.63;;;9.13;;
46407;SDS011;32110;45.724;21.276;2023-07-13T05:22:06;25.35;;;9.98;;
46407;SDS011;32110;45.724;21.276;2023-07-13T05:24:31;16.58;;;9.88;;
46407;SDS011;32110;45.724;21.276;2023-07-13T05:26:57;24.05;;;9.55;;
46407;SDS011;32110;45.724;21.276;2023-07-13T05:29:23;19.33;;;10.05;;
46407;SDS011;32110;45.724;21.276;2023-07-13T05:31:48;18.63;;;9.23;;
46407;SDS011;32110;45.724;21.276;2023-07-13T05:34:14;15.73;;;9.10;;
46407;SDS011;32110;45.724;21.276;2023-07-13T05:36:40;15.23;;;10.05;;
46407;SDS011;32110;45.724;21.276;2023-07-13T05:39:05;23.20;;;9.98;;
46407;SDS011;32110;45.724;21.276;2023-07-13T05:41:31;19.00;;;9.80;;
46407;SDS011;32110;45.724;21.276;2023-07-13T05:43:56;19.13;;;9.52;;
46407;SDS011;32110;45.724;21.276;2023-07-13T05:46:21;20.25;;;9.35;;
46407;SDS011;32110;45.724;21.276;2023-07-13T05:48:47;14.88;;;9.60;;
46407;SDS011;32110;45.724;21.276;2023-07-13T05:51:12;15.73;;;9.40;;
46407;SDS011;32110;45.724;21.276;2023-07-13T05:53:38;16.25;;;10.50;;
46407;SDS011;32110;45.724;21.276;2023-07-13T05:56:04;17.30;;;10.35;;
46407;SDS011;32110;45.724;21.276;2023-07-13T05:58:29;18.30;;;10.70;;
46407;SDS011;32110;45.724;21.276;2023-07-13T06:01:02;18.92;;;11.10;;
46407;SDS011;32110;45.724;21.276;2023-07-13T06:03:30;20.35;;;10.90;;
46407;SDS011;32110;45.724;21.276;2023-07-13T06:05:56;17.10;;;11.25;;
46407;SDS011;32110;45.724;21.276;2023-07-13T06:08:21;22.10;;;11.30;;
46407;SDS011;32110;45.724;21.276;2023-07-13T06:10:47;19.80;;;11.35;;
46407;SDS011;32110;45.724;21.276;2023-07-13T06:13:12;14.88;;;11.55;;
46407;SDS011;32110;45.724;21.276;2023-07-13T06:15:37;24.45;;;12.05;;
46407;SDS011;32110;45.724;21.276;2023-07-13T06:18:03;16.85;;;10.48;;
46407;SDS011;32110;45.724;21.276;2023-07-13T06:20:28;19.75;;;11.02;;
46407;SDS011;32110;45.724;21.276;2023-07-13T06:22:55;16.58;;;10.90;;
46407;SDS011;32110;45.724;21.276;2023-07-13T06:25:20;19.58;;;11.55;;
46407;SDS011;32110;45.724;21.276;2023-07-13T06:27:46;16.33;;;10.95;;
46407;SDS011;32110;45.724;21.276;2023-07-13T06:30:11;22.88;;;11.70;;
46407;SDS011;32110;45.724;21.276;2023-07-13T06:32:37;14.55;;;10.68;;
46407;SDS011;32110;45.724;21.276;2023-07-13T06:35:03;17.50;;;10.25;;
46407;SDS011;32110;45.724;21.276;2023-07-13T06:37:29;22.08;;;11.30;;
46407;SDS011;32110;45.724;21.276;2023-07-13T06:39:54;19.77;;;10.98;;
46407;SDS011;32110;45.724;21.276;2023-07-13T06:42:19;14.75;;;10.25;;
46407;SDS011;32110;45.724;21.276;2023-07-13T06:44:45;18.40;;;11.27;;
46407;SDS011;32110;45.724;21.276;2023-07-13T06:47:10;21.83;;;11.35;;
46407;SDS011;32110;45.724;21.276;2023-07-13T06:49:35;19.73;;;10.43;;
46407;SDS011;32110;45.724;21.276;2023-07-13T06:52:01;19.00;;;11.05;;
46407;SDS011;32110;45.724;21.276;2023-07-13T06:54:26;17.73;;;10.80;;
46407;SDS011;32110;45.724;21.276;2023-07-13T06:56:51;17.65;;;10.73;;
46407;SDS011;32110;45.724;21.276;2023-07-13T06:59:17;16.48;;;10.00;;
46407;SDS011;32110;45.724;21.276;2023-07-13T07:01:42;24.83;;;10.80;;
46407;SDS011;32110;45.724;21.276;2023-07-13T07:04:08;21.20;;;10.45;;
46407;SDS011;32110;45.724;21.276;2023-07-13T07:06:33;21.33;;;10.50;;
46407;SDS011;32110;45.724;21.276;2023-07-13T07:08:59;19.88;;;10.88;;
46407;SDS011;32110;45.724;21.276;2023-07-13T07:11:25;16.08;;;10.57;;
46407;SDS011;32110;45.724;21.276;2023-07-13T07:13:51;18.42;;;9.88;;
46407;SDS011;32110;45.724;21.276;2023-07-13T07:16:21;18.77;;;10.40;;
46407;SDS011;32110;45.724;21.276;2023-07-13T07:18:46;19.48;;;10.75;;
46407;SDS011;32110;45.724;21.276;2023-07-13T07:21:13;17.23;;;10.05;;
46407;SDS011;32110;45.724;21.276;2023-07-13T07:23:38;17.05;;;10.57;;
46407;SDS011;32110;45.724;21.276;2023-07-13T07:26:04;18.70;;;10.35;;
46407;SDS011;32110;45.724;21.276;2023-07-13T07:28:30;17.02;;;9.30;;
46407;SDS011;32110;45.724;21.276;2023-07-13T07:30:56;17.52;;;10.20;;
46407;SDS011;32110;45.724;21.276;2023-07-13T07:33:23;19.40;;;9.55;;
46407;SDS011;32110;45.724;21.276;2023-07-13T07:35:49;21.75;;;9.13;;
46407;SDS011;32110;45.724;21.276;2023-07-13T07:38:15;23.23;;;8.52;;
46407;SDS011;32110;45.724;21.276;2023-07-13T07:40:41;13.02;;;8.52;;
46407;SDS011;32110;45.724;21.276;2023-07-13T07:43:07;15.73;;;7.88;;
46407;SDS011;32110;45.724;21.276;2023-07-13T07:45:34;14.32;;;7.38;;
46407;SDS011;32110;45.724;21.276;2023-07-13T07:47:59;21.30;;;6.90;;
46407;SDS011;32110;45.724;21.276;2023-07-13T07:50:25;16.50;;;6.97;;
46407;SDS011;32110;45.724;21.276;2023-07-13T07:52:54;21.63;;;7.25;;
46407;SDS011;32110;45.724;21.276;2023-07-13T07:57:50;16.58;;;7.35;;
46407;SDS011;32110;45.724;21.276;2023-07-13T08:00:15;17.42;;;7.28;;
46407;SDS011;32110;45.724;21.276;2023-07-13T08:02:41;22.98;;;7.75;;
46407;SDS011;32110;45.724;21.276;2023-07-13T08:05:07;19.20;;;8.35;;
46407;SDS011;32110;45.724;21.276;2023-07-13T08:07:34;19.70;;;7.93;;
46407;SDS011;32110;45.724;21.276;2023-07-13T08:10:00;13.75;;;6.40;;
46407;SDS011;32110;45.724;21.276;2023-07-13T08:12:26;15.63;;;5.07;;
46407;SDS011;32110;45.724;21.276;2023-07-13T08:14:52;14.20;;;4.80;;
46407;SDS011;32110;45.724;21.276;2023-07-13T08:17:19;11.80;;;4.68;;
46407;SDS011;32110;45.724;21.276;2023-07-13T08:19:45;23.23;;;4.38;;
46407;SDS011;32110;45.724;21.276;2023-07-13T08:22:11;19.73;;;4.90;;
46407;SDS011;32110;45.724;21.276;2023-07-13T08:24:37;13.85;;;4.25;;
46407;SDS011;32110;45.724;21.276;2023-07-13T08:27:02;14.77;;;4.80;;
46407;SDS011;32110;45.724;21.276;2023-07-13T08:29:28;14.73;;;4.85;;
46407;SDS011;32110;45.724;21.276;2023-07-13T08:31:57;15.53;;;5.53;;
46407;SDS011;32110;45.724;21.276;2023-07-13T08:34:22;17.67;;;5.07;;
46407;SDS011;32110;45.724;21.276;2023-07-13T08:36:48;14.20;;;5.32;;
46407;SDS011;32110;45.724;21.276;2023-07-13T08:39:13;14.75;;;5.32;;
46407;SDS011;32110;45.724;21.276;2023-07-13T08:41:38;18.83;;;4.65;;
46407;SDS011;32110;45.724;21.276;2023-07-13T08:44:04;15.98;;;5.10;;
46407;SDS011;32110;45.724;21.276;2023-07-13T08:46:41;16.17;;;4.90;;
46407;SDS011;32110;45.724;21.276;2023-07-13T08:49:11;15.73;;;4.95;;
46407;SDS011;32110;45.724;21.276;2023-07-13T08:54:10;19.15;;;4.95;;
46407;SDS011;32110;45.724;21.276;2023-07-13T08:56:43;19.58;;;5.22;;
46407;SDS011;32110;45.724;21.276;2023-07-13T08:59:13;15.32;;;5.32;;
46407;SDS011;32110;45.724;21.276;2023-07-13T09:10:27;16.85;;;5.32;;
46407;SDS011;32110;45.724;21.276;2023-07-13T09:12:57;17.33;;;5.32;;
46407;SDS011;32110;45.724;21.276;2023-07-13T09:18:11;15.23;;;4.97;;
46407;SDS011;32110;45.724;21.276;2023-07-13T09:20:57;18.95;;;5.38;;
46407;SDS011;32110;45.724;21.276;2023-07-13T09:23:28;19.83;;;5.18;;
46407;SDS011;32110;45.724;21.276;2023-07-13T09:26:10;19.80;;;5.15;;
46407;SDS011;32110;45.724;21.276;2023-07-13T09:28:42;18.00;;;5.30;;
46407;SDS011;32110;45.724;21.276;2023-07-13T09:31:16;16.95;;;5.55;;
46407;SDS011;32110;45.724;21.276;2023-07-13T09:33:48;11.57;;;4.88;;
46407;SDS011;32110;45.724;21.276;2023-07-13T09:36:26;21.58;;;5.47;;
46407;SDS011;32110;45.724;21.276;2023-07-13T09:41:58;17.58;;;5.50;;
46407;SDS011;32110;45.724;21.276;2023-07-13T09:44:35;18.92;;;5.72;;
46407;SDS011;32110;45.724;21.276;2023-07-13T09:47:03;14.93;;;5.55;;
46407;SDS011;32110;45.724;21.276;2023-07-13T09:49:41;13.90;;;5.57;;
46407;SDS011;32110;45.724;21.276;2023-07-13T09:52:10;17.33;;;5.70;;
46407;SDS011;32110;45.724;21.276;2023-07-13T09:54:37;15.15;;;6.05;;
46407;SDS011;32110;45.724;21.276;2023-07-13T09:57:03;22.65;;;7.15;;
46407;SDS011;32110;45.724;21.276;2023-07-13T09:59:41;19.80;;;5.88;;
46407;SDS011;32110;45.724;21.276;2023-07-13T10:02:24;16.17;;;6.20;;
46407;SDS011;32110;45.724;21.276;2023-07-13T10:04:55;17.35;;;5.63;;
46407;SDS011;32110;45.724;21.276;2023-07-13T10:07:23;18.63;;;6.35;;
46407;SDS011;32110;45.724;21.276;2023-07-13T10:09:56;15.38;;;5.93;;
46407;SDS011;32110;45.724;21.276;2023-07-13T10:12:23;18.50;;;5.70;;
46407;SDS011;32110;45.724;21.276;2023-07-13T10:14:56;16.10;;;6.05;;
46407;SDS011;32110;45.724;21.276;2023-07-13T10:17:31;19.95;;;6.05;;
46407;SDS011;32110;45.724;21.276;2023-07-13T10:20:02;15.15;;;5.93;;
46407;SDS011;32110;45.724;21.276;2023-07-13T10:24:58;13.87;;;5.13;;
46407;SDS011;32110;45.724;21.276;2023-07-13T10:27:43;16.55;;;6.07;;
46407;SDS011;32110;45.724;21.276;2023-07-13T10:32:45;19.13;;;6.50;;
46407;SDS011;32110;45.724;21.276;2023-07-13T10:35:14;29.40;;;6.43;;
46407;SDS011;32110;45.724;21.276;2023-07-13T10:37:52;19.65;;;5.07;;
46407;SDS011;32110;45.724;21.276;2023-07-13T10:40:27;15.07;;;5.80;;
46407;SDS011;32110;45.724;21.276;2023-07-13T10:42:57;20.58;;;5.82;;
46407;SDS011;32110;45.724;21.276;2023-07-13T10:45:31;13.63;;;5.43;;
46407;SDS011;32110;45.724;21.276;2023-07-13T10:47:59;16.95;;;5.57;;
46407;SDS011;32110;45.724;21.276;2023-07-13T10:50:32;18.95;;;5.00;;
46407;SDS011;32110;45.724;21.276;2023-07-13T10:53:19;17.80;;;5.22;;
46407;SDS011;32110;45.724;21.276;2023-07-13T11:03:33;16.92;;;5.18;;
46407;SDS011;32110;45.724;21.276;2023-07-13T11:06:05;15.13;;;4.95;;
46407;SDS011;32110;45.724;21.276;2023-07-13T11:08:34;12.55;;;5.20;;
46407;SDS011;32110;45.724;21.276;2023-07-13T11:18:46;19.65;;;4.72;;
46407;SDS011;32110;45.724;21.276;2023-07-13T11:23:44;16.73;;;4.97;;
46407;SDS011;32110;45.724;21.276;2023-07-13T11:31:43;11.57;;;5.27;;
46407;SDS011;32110;45.724;21.276;2023-07-13T11:34:16;17.40;;;5.05;;
46407;SDS011;32110;45.724;21.276;2023-07-13T11:36:46;14.40;;;4.68;;
46407;SDS011;32110;45.724;21.276;2023-07-13T11:39:17;21.45;;;5.25;;
46407;SDS011;32110;45.724;21.276;2023-07-13T11:41:50;16.67;;;4.90;;
46407;SDS011;32110;45.724;21.276;2023-07-13T11:44:21;15.65;;;5.45;;
46407;SDS011;32110;45.724;21.276;2023-07-13T11:46:55;13.77;;;5.72;;
46407;SDS011;32110;45.724;21.276;2023-07-13T11:49:29;18.60;;;5.47;;
46407;SDS011;32110;45.724;21.276;2023-07-13T11:51:55;15.43;;;4.80;;
46407;SDS011;32110;45.724;21.276;2023-07-13T11:56:53;19.38;;;5.20;;
46407;SDS011;32110;45.724;21.276;2023-07-13T11:59:22;16.52;;;5.07;;
46407;SDS011;32110;45.724;21.276;2023-07-13T12:01:52;18.42;;;4.75;;
46407;SDS011;32110;45.724;21.276;2023-07-13T12:04:23;19.35;;;5.70;;
46407;SDS011;32110;45.724;21.276;2023-07-13T12:06:56;14.25;;;5.22;;
46407;SDS011;32110;45.724;21.276;2023-07-13T12:09:37;19.45;;;5.50;;
46407;SDS011;32110;45.724;21.276;2023-07-13T12:12:03;16.30;;;5.03;;
46407;SDS011;32110;45.724;21.276;2023-07-13T12:14:35;20.38;;;5.15;;
46407;SDS011;32110;45.724;21.276;2023-07-13T12:17:00;15.43;;;5.50;;
46407;SDS011;32110;45.724;21.276;2023-07-13T12:19:26;18.58;;;5.60;;
46407;SDS011;32110;45.724;21.276;2023-07-13T12:21:53;12.88;;;5.25;;
46407;SDS011;32110;45.724;21.276;2023-07-13T12:24:22;18.98;;;4.75;;
46407;SDS011;32110;45.724;21.276;2023-07-13T12:26:55;25.05;;;5.35;;
46407;SDS011;32110;45.724;21.276;2023-07-13T12:29:25;14.93;;;5.47;;
46407;SDS011;32110;45.724;21.276;2023-07-13T12:31:51;17.48;;;5.45;;
46407;SDS011;32110;45.724;21.276;2023-07-13T12:34:18;18.17;;;5.20;;
46407;SDS011;32110;45.724;21.276;2023-07-13T12:36:47;11.45;;;4.85;;
46407;SDS011;32110;45.724;21.276;2023-07-13T12:41:43;13.13;;;4.90;;
46407;SDS011;32110;45.724;21.276;2023-07-13T12:44:17;18.08;;;4.72;;
46407;SDS011;32110;45.724;21.276;2023-07-13T12:46:52;13.90;;;5.40;;
46407;SDS011;32110;45.724;21.276;2023-07-13T12:49:24;22.25;;;5.20;;
46407;SDS011;32110;45.724;21.276;2023-07-13T12:52:00;28.10;;;5.20;;
46407;SDS011;32110;45.724;21.276;2023-07-13T12:54:28;18.52;;;5.43;;
46407;SDS011;32110;45.724;21.276;2023-07-13T12:56:54;16.60;;;5.18;;
46407;SDS011;32110;45.724;21.276;2023-07-13T12:59:23;22.33;;;5.75;;
46407;SDS011;32110;45.724;21.276;2023-07-13T13:01:53;16.52;;;5.47;;
46407;SDS011;32110;45.724;21.276;2023-07-13T13:04:18;18.50;;;5.38;;
46407;SDS011;32110;45.724;21.276;2023-07-13T13:06:46;19.07;;;5.37;;
46407;SDS011;32110;45.724;21.276;2023-07-13T13:09:13;14.52;;;5.20;;
46407;SDS011;32110;45.724;21.276;2023-07-13T13:11:43;22.02;;;5.70;;
46407;SDS011;32110;45.724;21.276;2023-07-13T13:19:13;17.23;;;5.15;;
46407;SDS011;32110;45.724;21.276;2023-07-13T13:21:39;15.60;;;5.57;;
46407;SDS011;32110;45.724;21.276;2023-07-13T13:24:12;18.02;;;4.60;;
46407;SDS011;32110;45.724;21.276;2023-07-13T13:26:39;18.83;;;4.97;;
46407;SDS011;32110;45.724;21.276;2023-07-13T13:29:15;17.25;;;5.35;;
46407;SDS011;32110;45.724;21.276;2023-07-13T13:34:13;13.93;;;4.70;;
46407;SDS011;32110;45.724;21.276;2023-07-13T13:36:42;19.33;;;5.00;;
46407;SDS011;32110;45.724;21.276;2023-07-13T13:39:16;13.82;;;5.60;;
46407;SDS011;32110;45.724;21.276;2023-07-13T13:41:45;17.45;;;4.78;;
46407;SDS011;32110;45.724;21.276;2023-07-13T13:44:10;16.63;;;5.05;;
46407;SDS011;32110;45.724;21.276;2023-07-13T13:46:37;10.52;;;4.80;;
46407;SDS011;32110;45.724;21.276;2023-07-13T13:49:02;13.90;;;4.78;;
46407;SDS011;32110;45.724;21.276;2023-07-13T13:51:28;19.67;;;5.13;;
46407;SDS011;32110;45.724;21.276;2023-07-13T13:53:54;21.70;;;5.75;;
46407;SDS011;32110;45.724;21.276;2023-07-13T13:56:20;12.27;;;4.93;;
46407;SDS011;32110;45.724;21.276;2023-07-13T13:58:45;20.05;;;5.53;;
46407;SDS011;32110;45.724;21.276;2023-07-13T14:01:16;14.13;;;4.47;;
46407;SDS011;32110;45.724;21.276;2023-07-13T14:03:44;14.40;;;4.50;;
46407;SDS011;32110;45.724;21.276;2023-07-13T14:06:13;13.15;;;4.63;;
46407;SDS011;32110;45.724;21.276;2023-07-13T14:08:40;15.18;;;4.40;;
46407;SDS011;32110;45.724;21.276;2023-07-13T14:11:05;13.85;;;3.90;;
46407;SDS011;32110;45.724;21.276;2023-07-13T14:13:36;16.65;;;4.18;;
46407;SDS011;32110;45.724;21.276;2023-07-13T14:16:25;12.25;;;4.05;;
46407;SDS011;32110;45.724;21.276;2023-07-13T14:18:54;11.65;;;4.45;;
46407;SDS011;32110;45.724;21.276;2023-07-13T14:21:23;12.93;;;4.03;;
46407;SDS011;32110;45.724;21.276;2023-07-13T14:23:49;15.43;;;3.90;;
46407;SDS011;32110;45.724;21.276;2023-07-13T14:26:19;11.32;;;3.92;;
46407;SDS011;32110;45.724;21.276;2023-07-13T14:28:47;12.23;;;4.03;;
46407;SDS011;32110;45.724;21.276;2023-07-13T14:31:15;14.15;;;4.70;;
46407;SDS011;32110;45.724;21.276;2023-07-13T14:33:41;15.95;;;3.60;;
46407;SDS011;32110;45.724;21.276;2023-07-13T14:38:54;11.30;;;3.30;;
46407;SDS011;32110;45.724;21.276;2023-07-13T14:41:20;13.60;;;3.28;;
46407;SDS011;32110;45.724;21.276;2023-07-13T14:43:46;17.63;;;3.33;;
46407;SDS011;32110;45.724;21.276;2023-07-13T14:46:33;12.23;;;3.45;;
46407;SDS011;32110;45.724;21.276;2023-07-13T14:51:51;12.20;;;3.70;;
46407;SDS011;32110;45.724;21.276;2023-07-13T14:54:17;12.32;;;2.80;;
46407;SDS011;32110;45.724;21.276;2023-07-13T14:56:42;14.75;;;3.10;;
46407;SDS011;32110;45.724;21.276;2023-07-13T14:59:08;10.27;;;3.00;;
46407;SDS011;32110;45.724;21.276;2023-07-13T15:01:36;15.57;;;2.80;;
46407;SDS011;32110;45.724;21.276;2023-07-13T15:04:03;8.45;;;2.42;;
46407;SDS011;32110;45.724;21.276;2023-07-13T15:06:29;8.98;;;2.28;;
46407;SDS011;32110;45.724;21.276;2023-07-13T15:08:56;8.95;;;2.28;;
46407;SDS011;32110;45.724;21.276;2023-07-13T15:11:22;6.40;;;2.38;;
46407;SDS011;32110;45.724;21.276;2023-07-13T15:13:47;6.93;;;2.05;;
46407;SDS011;32110;45.724;21.276;2023-07-13T15:16:31;10.35;;;2.35;;
46407;SDS011;32110;45.724;21.276;2023-07-13T15:18:56;9.98;;;2.35;;
46407;SDS011;32110;45.724;21.276;2023-07-13T15:21:24;14.05;;;3.17;;
46407;SDS011;32110;45.724;21.276;2023-07-13T15:23:50;7.60;;;2.80;;
46407;SDS011;32110;45.724;21.276;2023-07-13T15:26:16;9.15;;;2.70;;
46407;SDS011;32110;45.724;21.276;2023-07-13T15:28:43;8.57;;;3.17;;
46407;SDS011;32110;45.724;21.276;2023-07-13T15:31:31;14.73;;;2.83;;